Time;durP1;ratioP1;P1;durP2;ratioP2;P2;SDS_P1;SDS_P2;PMS_P1;PMS_P2;Temp;Humidity;BMP_temperature;BMP_pressure;BME280_temperature;BME280_humidity;BME280_pressure;Samples;Min_cycle;Max_cycle;Signal;HPM_P1;HPM_P2
2024/01/31 00:01:18;;;;;;;;;5.00;5.00;;;;;10.51;50.14;102970.47;5076879;28;45606;-78
2024/01/31 00:03:45;;;;;;;;;6.33;6.33;;;;;10.04;50.26;102898.75;5076915;28;45479;-80
2024/01/31 00:06:11;;;;;;;;;7.33;5.33;;;;;10.87;50.50;103036.63;5075544;28;45335;-80
2024/01/31 00:08:37;;;;;;;;;8.00;7.67;;;;;10.88;50.59;103041.00;5075815;28;45458;-80
2024/01/31 00:11:03;;;;;;;;;8.00;7.33;;;;;10.29;50.10;102946.06;5076198;28;45359;-79
2024/01/31 00:13:28;;;;;;;;;6.67;5.00;;;;;10.72;50.73;103028.69;5058504;28;47358;-78
2024/01/31 00:15:54;;;;;;;;;6.00;6.00;;;;;10.45;50.44;102986.78;5076584;28;45264;-80
2024/01/31 00:18:20;;;;;;;;;5.00;5.00;;;;;10.35;50.64;102978.47;5080423;27;45430;-79
2024/01/31 00:20:45;;;;;;;;;5.67;5.67;;;;;10.75;50.90;103039.13;5080279;28;45324;-80
2024/01/31 00:23:10;;;;;;;;;4.67;4.67;;;;;10.81;51.05;103034.34;5081523;28;46225;-79
2024/01/31 00:25:36;;;;;;;;;7.33;7.00;;;;;10.55;50.10;102989.75;5080661;28;45340;-79
2024/01/31 00:28:01;;;;;;;;;6.33;5.67;;;;;10.69;50.70;103018.22;5080436;28;45422;-81
2024/01/31 00:30:27;;;;;;;;;6.00;6.00;;;;;10.83;50.74;103031.59;5079339;28;45540;-79
2024/01/31 00:32:52;;;;;;;;;5.67;5.33;;;;;10.89;50.63;103040.06;5078424;28;46001;-80
2024/01/31 00:35:19;;;;;;;;;5.67;5.67;;;;;10.94;50.09;103050.41;5081002;28;45471;-79
2024/01/31 00:37:44;;;;;;;;;5.00;5.00;;;;;10.96;50.35;103037.88;5079242;28;45523;-79
2024/01/31 00:40:10;;;;;;;;;5.67;5.33;;;;;10.59;50.74;103000.13;5078792;28;45533;-80
2024/01/31 00:42:38;;;;;;;;;9.00;7.00;;;;;10.77;50.49;103030.13;5078357;28;46019;-78
2024/01/31 00:45:07;;;;;;;;;4.67;4.67;;;;;10.72;50.33;103018.88;5078570;28;45264;-79
2024/01/31 00:47:32;;;;;;;;;6.00;6.00;;;;;10.19;50.99;102916.44;5079806;27;45547;-78
2024/01/31 00:49:58;;;;;;;;;5.00;5.00;;;;;10.73;50.62;103001.13;5078246;27;45437;-78
2024/01/31 00:52:23;;;;;;;;;6.00;6.00;;;;;10.85;50.64;103024.38;5099345;27;45537;-81
2024/01/31 00:54:49;;;;;;;;;5.67;5.67;;;;;10.60;51.04;102988.53;5098428;27;45492;-79
2024/01/31 00:57:14;;;;;;;;;5.00;5.00;;;;;10.67;50.74;102989.03;5088787;27;44935;-79
2024/01/31 00:59:43;;;;;;;;;6.00;6.00;;;;;10.66;50.60;102987.34;5081662;27;45480;-78
2024/01/31 01:02:09;;;;;;;;;7.33;7.33;;;;;10.83;50.93;103007.63;5088161;27;45967;-79
2024/01/31 01:04:34;;;;;;;;;6.67;5.67;;;;;10.85;50.66;103013.72;5079019;28;45498;-79
2024/01/31 01:07:00;;;;;;;;;7.33;6.67;;;;;10.00;50.36;102866.13;5058864;28;45380;-80
2024/01/31 01:09:25;;;;;;;;;5.67;5.67;;;;;9.99;50.71;102868.88;5076675;27;45790;-78
2024/01/31 01:11:51;;;;;;;;;7.00;7.00;;;;;10.84;50.69;103009.34;5075831;28;45585;-79
2024/01/31 01:14:16;;;;;;;;;8.00;7.67;;;;;10.89;50.56;102999.28;5080115;27;45457;-79
2024/01/31 01:16:41;;;;;;;;;7.00;7.00;;;;;10.84;50.82;102990.72;5089101;27;45359;-77
2024/01/31 01:19:07;;;;;;;;;6.00;6.00;;;;;10.92;50.81;102985.78;5066117;27;45588;-78
2024/01/31 01:21:33;;;;;;;;;5.00;5.00;;;;;10.97;50.23;102992.53;5096182;27;45305;-77
2024/01/31 01:23:59;;;;;;;;;6.67;5.33;;;;;10.80;50.03;102962.56;5098460;27;45661;-78
2024/01/31 01:26:24;;;;;;;;;7.00;5.67;;;;;11.05;50.29;103018.72;5098195;27;45652;-78
2024/01/31 01:28:49;;;;;;;;;6.67;6.67;;;;;11.07;49.94;103003.50;5096607;27;45508;-80
2024/01/31 01:31:15;;;;;;;;;7.00;7.00;;;;;11.00;50.21;102982.66;5078033;27;45996;-79
2024/01/31 01:33:40;;;;;;;;;7.33;6.33;;;;;10.81;50.07;102950.97;5078687;27;45556;-77
2024/01/31 01:36:06;;;;;;;;;7.00;7.00;;;;;11.05;50.45;102999.22;5058999;28;45539;-77
2024/01/31 01:38:32;;;;;;;;;7.00;7.00;;;;;11.02;50.02;102978.13;5059029;28;45431;-79
2024/01/31 01:40:57;;;;;;;;;9.00;9.00;;;;;11.12;50.25;102990.78;5058509;28;48343;-78
2024/01/31 01:43:23;;;;;;;;;8.33;8.33;;;;;10.88;50.27;102955.00;5076960;28;45340;-77
2024/01/31 01:45:55;;;;;;;;;12.00;9.00;;;;;10.62;49.97;102913.97;5079347;27;45524;-78
2024/01/31 01:48:21;;;;;;;;;7.00;7.00;;;;;10.75;49.93;102954.00;5089931;27;45443;-79
2024/01/31 01:50:46;;;;;;;;;7.00;7.00;;;;;10.74;50.05;102941.63;5085782;27;45425;-79
2024/01/31 01:53:12;;;;;;;;;7.00;7.00;;;;;10.92;49.93;102986.63;5096761;27;45547;-78
2024/01/31 01:55:41;;;;;;;;;9.00;9.00;;;;;10.76;50.44;102998.28;5090327;27;45489;-79
2024/01/31 01:58:06;;;;;;;;;6.33;6.33;;;;;10.64;50.79;102979.44;5058967;28;45506;-78
2024/01/31 02:00:33;;;;;;;;;9.00;7.33;;;;;10.90;51.10;103001.84;5088863;27;45528;-78
2024/01/31 02:03:00;;;;;;;;;6.67;6.67;;;;;10.99;50.90;103003.09;5096678;27;45643;-78
2024/01/31 02:05:26;;;;;;;;;8.00;8.00;;;;;10.99;50.31;102995.09;5096209;27;45488;-79
2024/01/31 02:07:51;;;;;;;;;6.33;6.00;;;;;10.92;50.35;102977.78;5097402;27;45690;-78
2024/01/31 02:10:17;;;;;;;;;7.00;7.00;;;;;10.77;50.39;102963.59;5097113;27;46340;-81
2024/01/31 02:12:43;;;;;;;;;9.33;7.33;;;;;10.86;50.25;102962.22;5085284;27;45711;-80
2024/01/31 02:15:09;;;;;;;;;6.00;6.00;;;;;10.72;50.86;102938.22;5058393;28;45270;-79
2024/01/31 02:17:35;;;;;;;;;9.00;9.00;;;;;10.89;50.87;102962.88;5076333;27;45295;-79
2024/01/31 02:20:00;;;;;;;;;9.67;8.67;;;;;10.93;50.59;102975.03;5057814;28;46046;-77
2024/01/31 02:22:25;;;;;;;;;9.67;8.00;;;;;10.94;50.62;102976.75;5077783;27;45550;-78
2024/01/31 02:24:51;;;;;;;;;7.00;7.00;;;;;10.64;50.58;102920.06;5076563;28;45430;-79
2024/01/31 02:27:16;;;;;;;;;8.00;7.00;;;;;10.69;51.08;102935.75;5068452;28;45415;-78
2024/01/31 02:29:42;;;;;;;;;13.00;9.00;;;;;10.46;50.88;102899.88;5085503;28;45355;-80
2024/01/31 02:32:07;;;;;;;;;8.67;8.67;;;;;10.98;51.12;102977.41;5077774;28;45290;-78
2024/01/31 02:34:33;;;;;;;;;7.00;7.00;;;;;10.97;50.96;102987.22;5076574;28;45373;-78
2024/01/31 02:36:58;;;;;;;;;7.67;6.67;;;;;10.17;50.99;102851.03;5076638;28;45470;-78
2024/01/31 02:39:24;;;;;;;;;8.00;8.00;;;;;10.65;50.51;102927.94;5082879;27;45886;-78
2024/01/31 02:41:51;;;;;;;;;9.33;7.67;;;;;10.24;50.66;102860.41;5078082;27;46064;-78
2024/01/31 02:44:17;;;;;;;;;9.33;7.33;;;;;10.72;50.98;102955.03;5097451;27;45736;-79
2024/01/31 02:46:43;;;;;;;;;7.33;7.33;;;;;10.62;50.84;102932.59;5087697;27;45476;-79
2024/01/31 02:49:08;;;;;;;;;7.00;7.00;;;;;10.87;50.52;102979.88;5086812;27;45963;-79
2024/01/31 02:51:34;;;;;;;;;7.00;6.00;;;;;10.88;50.74;102978.94;5096465;27;45303;-79
2024/01/31 02:54:00;;;;;;;;;7.00;7.00;;;;;10.78;50.97;102956.47;5096359;27;45539;-78
2024/01/31 02:56:25;;;;;;;;;10.67;10.00;;;;;11.01;50.45;102993.19;5088892;27;45517;-79
2024/01/31 02:58:50;;;;;;;;;6.67;6.67;;;;;11.03;50.49;102991.34;5057356;28;46979;-80
2024/01/31 03:01:16;;;;;;;;;5.67;5.00;;;;;10.89;50.72;102988.63;5068361;27;45296;-78
2024/01/31 03:03:41;;;;;;;;;6.33;6.33;;;;;10.76;50.65;102992.97;5092177;27;45292;-79
2024/01/31 03:06:06;;;;;;;;;6.33;5.00;;;;;10.71;50.57;103003.88;5076063;28;45376;-79
2024/01/31 03:08:32;;;;;;;;;7.67;7.67;;;;;10.62;50.78;103002.63;5075209;27;45385;-77
2024/01/31 03:10:57;;;;;;;;;5.00;5.00;;;;;10.59;50.62;102996.59;5075412;28;45359;-80
2024/01/31 03:13:22;;;;;;;;;5.33;5.33;;;;;10.65;50.75;103005.09;5075230;27;45504;-79
2024/01/31 03:15:48;;;;;;;;;5.33;4.00;;;;;10.61;51.01;102990.28;5080401;27;45378;-79
2024/01/31 03:18:13;;;;;;;;;4.67;4.67;;;;;10.83;50.78;103008.50;5087538;27;45531;-78
2024/01/31 03:20:39;;;;;;;;;8.33;6.33;;;;;10.88;49.96;103010.88;5094661;27;45501;-79
2024/01/31 03:23:04;;;;;;;;;5.33;4.33;;;;;10.88;49.98;103010.88;5081411;27;45866;-79
2024/01/31 03:25:29;;;;;;;;;4.00;4.00;;;;;10.84;49.88;102998.69;5094777;27;45448;-79
2024/01/31 03:27:55;;;;;;;;;6.00;5.00;;;;;10.57;49.95;102969.22;5086888;27;45535;-79
2024/01/31 03:30:21;;;;;;;;;5.67;5.00;;;;;10.25;49.67;102896.66;5080016;27;45308;-81
2024/01/31 03:32:46;;;;;;;;;6.00;4.67;;;;;10.71;49.95;102984.41;5082752;27;45594;-78
2024/01/31 03:35:12;;;;;;;;;7.00;5.67;;;;;10.75;50.01;102999.22;5062825;27;45499;-77
2024/01/31 03:37:37;;;;;;;;;6.00;6.00;;;;;10.86;50.09;103010.09;5090040;27;45494;-79
2024/01/31 03:40:07;;;;;;;;;3.33;3.33;;;;;10.64;49.72;102978.59;5095556;27;45669;-78
2024/01/31 03:42:32;;;;;;;;;7.00;5.00;;;;;10.22;50.18;102910.16;5075399;28;45366;-78
2024/01/31 03:44:58;;;;;;;;;6.00;6.00;;;;;10.86;49.88;103005.66;5076041;28;45515;-79
2024/01/31 03:47:23;;;;;;;;;6.67;5.67;;;;;10.10;49.71;102890.41;5079119;27;45500;-78
2024/01/31 03:49:51;;;;;;;;;4.00;4.00;;;;;10.85;50.03;103014.56;5086545;27;45550;-78
2024/01/31 03:52:17;;;;;;;;;3.00;3.00;;;;;10.06;50.28;102879.09;5079353;28;45407;-81
2024/01/31 03:54:43;;;;;;;;;4.00;4.00;;;;;10.76;50.08;102998.28;5084054;27;45644;-79
2024/01/31 03:57:08;;;;;;;;;5.33;5.33;;;;;10.49;49.16;102963.50;5098052;27;45790;-79
2024/01/31 03:59:33;;;;;;;;;6.00;5.00;;;;;10.75;49.46;103009.88;5088856;27;45537;-81
2024/01/31 04:01:59;;;;;;;;;4.33;4.00;;;;;10.80;49.92;103011.31;5094302;27;45318;-79
2024/01/31 04:04:24;;;;;;;;;5.00;5.00;;;;;10.97;49.49;103031.59;5086094;27;45437;-79
2024/01/31 04:06:49;;;;;;;;;5.33;4.00;;;;;10.87;49.63;103012.69;5075377;27;45973;-80
2024/01/31 04:09:15;;;;;;;;;7.00;5.00;;;;;10.68;48.72;103001.41;5081082;27;45543;-79
2024/01/31 04:11:40;;;;;;;;;5.33;5.00;;;;;10.68;49.07;103001.41;5080990;27;45473;-79
2024/01/31 04:14:06;;;;;;;;;6.00;5.00;;;;;10.44;49.37;102981.53;5077419;27;45350;-82
2024/01/31 04:16:31;;;;;;;;;3.00;3.00;;;;;10.20;49.00;102968.66;5087669;27;46080;-78
2024/01/31 04:18:56;;;;;;;;;5.00;3.67;;;;;10.55;49.19;103027.84;5074924;28;45295;-79
2024/01/31 04:21:23;;;;;;;;;2.00;2.00;;;;;10.27;49.60;103004.63;5075401;27;45288;-80
2024/01/31 04:23:48;;;;;;;;;4.00;3.67;;;;;10.36;49.72;103021.84;5074894;28;45555;-80
2024/01/31 04:26:14;;;;;;;;;4.00;4.00;;;;;10.31;49.55;103008.81;5075670;27;45453;-81
2024/01/31 04:28:39;;;;;;;;;5.00;3.00;;;;;10.23;49.44;103023.50;5095415;27;45496;-79
2024/01/31 04:31:11;;;;;;;;;4.00;4.00;;;;;10.12;49.95;103007.25;5095074;27;45291;-78
2024/01/31 04:33:37;;;;;;;;;3.33;3.33;;;;;9.82;49.64;102975.28;5095352;27;45318;-79
2024/01/31 04:36:02;;;;;;;;;4.67;4.00;;;;;10.18;49.76;103022.84;5095135;27;45393;-79
2024/01/31 04:38:27;;;;;;;;;4.33;4.33;;;;;10.19;49.33;103029.88;5087508;27;45575;-78
2024/01/31 04:40:53;;;;;;;;;3.00;3.00;;;;;10.17;49.78;103034.44;5056949;28;45593;-79
2024/01/31 04:43:18;;;;;;;;;3.67;3.67;;;;;10.14;49.73;103016.84;5075490;28;45239;-79
2024/01/31 04:45:44;;;;;;;;;3.00;2.00;;;;;9.42;49.48;102884.53;5056228;27;45433;-79
2024/01/31 04:48:09;;;;;;;;;2.67;2.67;;;;;10.41;50.03;103034.88;5074062;28;45372;-78
2024/01/31 04:50:35;;;;;;;;;2.00;2.00;;;;;10.49;49.50;103032.66;5074992;28;45505;-77
2024/01/31 04:53:00;;;;;;;;;3.00;3.00;;;;;10.33;49.38;102985.66;5074932;28;45436;-79
2024/01/31 04:55:25;;;;;;;;;4.00;4.00;;;;;10.56;48.74;103023.38;5075344;27;45583;-77
2024/01/31 04:57:51;;;;;;;;;5.33;4.00;;;;;10.43;49.24;102988.66;5077126;28;45534;-78
2024/01/31 05:00:17;;;;;;;;;5.33;3.67;;;;;10.57;48.69;103017.97;5061320;28;45280;-79
2024/01/31 05:02:42;;;;;;;;;4.00;4.00;;;;;10.24;49.14;102964.06;5064422;27;45396;-78
2024/01/31 05:05:08;;;;;;;;;4.00;3.00;;;;;10.46;49.25;103001.78;5081528;27;48259;-78
2024/01/31 05:07:34;;;;;;;;;4.00;4.00;;;;;10.54;49.26;103012.81;5099276;27;45294;-78
2024/01/31 05:09:59;;;;;;;;;3.00;3.00;;;;;10.53;48.54;103005.78;5099449;27;45443;-78
2024/01/31 05:12:25;;;;;;;;;5.00;5.00;;;;;10.44;49.23;102985.06;5091767;27;45319;-79
2024/01/31 05:14:50;;;;;;;;;4.67;4.00;;;;;10.54;49.19;103007.50;5084145;27;45529;-79
2024/01/31 05:17:15;;;;;;;;;3.67;3.67;;;;;10.22;49.05;102944.69;5091046;27;47007;-79
2024/01/31 05:19:44;;;;;;;;;6.00;5.00;;;;;10.51;49.07;102993.53;5062917;27;45965;-77
2024/01/31 05:22:10;;;;;;;;;2.33;2.33;;;;;10.31;48.89;102970.75;5098166;27;45420;-78
2024/01/31 05:24:35;;;;;;;;;4.00;4.00;;;;;10.39;49.45;102965.84;5093903;27;45620;-79
2024/01/31 05:27:03;;;;;;;;;3.67;3.67;;;;;10.58;49.13;102995.75;5096862;27;45468;-79
2024/01/31 05:29:30;;;;;;;;;4.67;3.33;;;;;10.23;49.20;102930.47;5086083;27;45462;-78
2024/01/31 05:31:55;;;;;;;;;3.67;3.00;;;;;10.18;49.00;102932.47;5098821;27;45506;-80
2024/01/31 05:34:22;;;;;;;;;5.00;3.00;;;;;10.46;49.58;102974.34;5082444;27;45985;-78
2024/01/31 05:36:48;;;;;;;;;5.00;4.00;;;;;10.50;49.30;102974.06;5090404;27;45445;-79
2024/01/31 05:39:14;;;;;;;;;2.67;2.67;;;;;10.69;49.80;102992.47;5099085;27;44774;-80
2024/01/31 05:41:42;;;;;;;;;5.00;4.00;;;;;10.03;49.31;102887.25;5100268;27;45461;-80
2024/01/31 05:44:08;;;;;;;;;4.00;4.00;;;;;10.59;49.71;102976.16;5098914;27;46106;-79
2024/01/31 05:46:33;;;;;;;;;4.33;3.00;;;;;10.53;49.74;102968.56;5082972;27;45389;-80
2024/01/31 05:49:01;;;;;;;;;6.00;4.67;;;;;10.58;49.54;102974.47;5059871;28;45530;-79
2024/01/31 05:51:27;;;;;;;;;6.00;5.00;;;;;10.52;49.46;102964.19;5091258;27;45458;-80
2024/01/31 05:53:52;;;;;;;;;3.67;3.67;;;;;10.60;49.68;102977.88;5087031;27;45627;-77
2024/01/31 05:56:18;;;;;;;;;4.00;4.00;;;;;10.69;49.59;102980.97;5098270;27;45401;-77
2024/01/31 05:58:43;;;;;;;;;4.00;4.00;;;;;10.57;49.86;102962.09;5092126;27;45504;-80
2024/01/31 06:01:09;;;;;;;;;5.33;5.33;;;;;10.02;50.07;102864.28;5078340;28;45412;-78
2024/01/31 06:03:34;;;;;;;;;4.00;4.00;;;;;10.32;50.37;102922.81;5088090;27;46181;-79
2024/01/31 06:05:59;;;;;;;;;6.00;5.00;;;;;10.54;49.99;102954.31;5094246;27;45469;-80
2024/01/31 06:08:25;;;;;;;;;4.00;4.00;;;;;10.54;50.35;102951.66;5080415;28;45353;-78
2024/01/31 06:10:58;;;;;;;;;4.67;4.67;;;;;10.14;50.87;102899.03;5072839;27;45600;-78
2024/01/31 06:13:23;;;;;;;;;4.67;4.67;;;;;10.50;50.66;102976.72;5103249;27;45264;-78
2024/01/31 06:15:49;;;;;;;;;6.00;4.00;;;;;9.92;50.89;102873.72;5085779;27;45851;-79
2024/01/31 06:18:15;;;;;;;;;5.67;5.00;;;;;10.07;50.55;102910.03;5104314;27;45368;-79
2024/01/31 06:20:44;;;;;;;;;6.33;6.33;;;;;9.80;51.14;102869.06;5090791;27;45373;-79
2024/01/31 06:23:12;;;;;;;;;6.00;5.00;;;;;10.25;50.73;102950.69;5080689;28;46208;-80
2024/01/31 06:25:38;;;;;;;;;1.33;1.33;;;;;10.16;51.07;102929.91;5062890;28;45664;-80
2024/01/31 06:28:05;;;;;;;;;6.00;6.00;;;;;10.31;51.18;102960.13;5062426;28;45643;-79
2024/01/31 06:30:32;;;;;;;;;4.00;4.00;;;;;9.94;51.62;102903.69;5079658;28;45485;-80
2024/01/31 06:33:07;;;;;;;;;5.33;4.33;;;;;10.24;51.17;102970.25;5080656;28;46168;-80
2024/01/31 06:35:36;;;;;;;;;5.00;5.00;;;;;10.22;51.49;102956.19;5080942;27;44790;-79
2024/01/31 06:38:03;;;;;;;;;5.00;5.00;;;;;9.35;51.17;102825.59;5072617;27;45332;-80
2024/01/31 06:40:30;;;;;;;;;4.00;4.00;;;;;9.84;51.52;102923.78;5080749;27;45597;-78
2024/01/31 06:42:56;;;;;;;;;6.00;5.00;;;;;9.82;51.52;102920.34;5079979;27;46186;-80
2024/01/31 06:45:24;;;;;;;;;6.67;5.33;;;;;9.76;51.69;102904.75;5080627;27;45368;-79
2024/01/31 06:47:50;;;;;;;;;7.33;7.33;;;;;9.71;52.06;102898.84;5091758;27;45311;-80
2024/01/31 06:50:16;;;;;;;;;9.00;6.67;;;;;10.06;52.09;102966.81;5114549;27;45236;-79
2024/01/31 06:52:41;;;;;;;;;7.00;7.00;;;;;9.83;52.30;102932.69;5114550;27;45283;-80
2024/01/31 06:55:07;;;;;;;;;8.00;5.00;;;;;10.00;52.55;102967.13;5087543;27;45275;-80
2024/01/31 06:57:34;;;;;;;;;8.00;6.67;;;;;9.67;52.30;102899.94;5085740;27;46124;-80
2024/01/31 07:00:00;;;;;;;;;6.00;6.00;;;;;9.87;52.50;102939.53;5084866;27;45021;-79
2024/01/31 07:02:26;;;;;;;;;9.00;8.00;;;;;9.85;52.86;102952.06;5098762;27;45147;-80
2024/01/31 07:04:51;;;;;;;;;7.00;7.00;;;;;9.91;53.09;102962.34;5085279;27;45466;-80
2024/01/31 07:07:16;;;;;;;;;8.67;7.33;;;;;9.77;53.58;102943.63;5108275;27;45367;-79
2024/01/31 07:09:42;;;;;;;;;7.33;7.00;;;;;9.89;53.85;102984.63;5105515;27;45053;-80
2024/01/31 07:12:07;;;;;;;;;8.33;8.00;;;;;9.86;53.97;102979.47;5111729;27;45575;-81
2024/01/31 07:14:33;;;;;;;;;9.33;8.67;;;;;8.65;53.90;102771.06;5096795;27;45252;-81
2024/01/31 07:16:58;;;;;;;;;10.33;10.33;;;;;9.85;54.35;102969.81;5095066;27;45348;-78
2024/01/31 07:19:23;;;;;;;;;11.67;10.00;;;;;9.82;54.39;102977.94;5090999;28;45081;-80
2024/01/31 07:21:49;;;;;;;;;13.33;11.00;;;;;9.83;54.26;102971.69;5084018;27;46309;-79
2024/01/31 07:24:14;;;;;;;;;10.00;9.00;;;;;9.75;54.59;102961.47;5073489;27;45265;-81
2024/01/31 07:26:40;;;;;;;;;7.00;6.00;;;;;9.44;54.22;102920.66;5077919;27;45517;-80
2024/01/31 07:29:08;;;;;;;;;10.00;8.00;;;;;9.41;54.13;102927.91;5098761;27;45407;-79
2024/01/31 07:31:34;;;;;;;;;10.00;8.00;;;;;9.78;54.23;102993.16;5082987;27;46172;-80
2024/01/31 07:33:59;;;;;;;;;7.00;6.00;;;;;9.81;54.44;102993.03;5083946;27;45433;-81
2024/01/31 07:36:25;;;;;;;;;5.00;5.00;;;;;9.56;54.36;102960.75;5078708;27;45371;-80
2024/01/31 07:38:50;;;;;;;;;6.00;5.33;;;;;8.78;54.88;102840.19;5083787;27;45512;-82
2024/01/31 07:41:16;;;;;;;;;7.67;6.67;;;;;9.77;54.82;102994.97;5073166;27;48065;-79
2024/01/31 07:43:42;;;;;;;;;6.00;6.00;;;;;9.42;54.48;102941.13;5082236;27;45419;-81
2024/01/31 07:46:08;;;;;;;;;7.33;6.67;;;;;9.73;54.32;102992.56;5061511;28;45631;-80
2024/01/31 07:48:33;;;;;;;;;7.00;7.00;;;;;9.89;54.84;103005.88;5078298;28;45543;-79
2024/01/31 07:51:03;;;;;;;;;6.00;6.00;;;;;9.78;54.79;102971.91;5060282;28;47318;-80
2024/01/31 07:53:29;;;;;;;;;9.33;9.33;;;;;9.73;54.46;102964.22;5077853;28;45290;-81
2024/01/31 07:55:55;;;;;;;;;12.00;7.33;;;;;9.73;55.29;102958.03;5077132;27;45485;-79
2024/01/31 07:58:20;;;;;;;;;13.67;11.33;;;;;9.99;54.58;102975.19;5059013;27;45454;-81
2024/01/31 08:00:45;;;;;;;;;12.33;12.33;;;;;10.23;55.01;102999.59;5080175;27;45550;-80
2024/01/31 08:03:11;;;;;;;;;8.00;8.00;;;;;10.29;54.51;102996.56;5098638;27;45491;-80
2024/01/31 08:05:36;;;;;;;;;8.33;7.00;;;;;10.33;54.63;102998.97;5102587;27;45474;-79
2024/01/31 08:08:02;;;;;;;;;10.67;8.67;;;;;9.90;54.55;102915.44;5081926;28;45438;-78
2024/01/31 08:10:27;;;;;;;;;9.33;9.33;;;;;9.38;54.29;102830.72;5065417;28;46505;-80
2024/01/31 08:12:53;;;;;;;;;9.00;8.67;;;;;9.83;54.93;102911.44;5101054;27;45532;-80
2024/01/31 08:15:18;;;;;;;;;11.33;10.33;;;;;10.10;55.68;102956.00;5112916;27;44941;-80
2024/01/31 08:17:46;;;;;;;;;11.00;11.00;;;;;10.27;55.43;102979.84;5104335;27;44896;-78
2024/01/31 08:20:12;;;;;;;;;7.33;6.00;;;;;9.62;55.54;102859.53;5111694;27;45748;-79
2024/01/31 08:22:37;;;;;;;;;15.67;10.67;;;;;9.65;55.62;102859.34;5110518;27;45303;-78
2024/01/31 08:25:04;;;;;;;;;9.67;6.00;;;;;10.32;56.72;102972.47;5113318;27;45779;-79
2024/01/31 08:27:30;;;;;;;;;7.00;7.00;;;;;10.33;56.55;102974.19;5101470;27;45682;-82
2024/01/31 08:29:55;;;;;;;;;8.67;7.00;;;;;10.32;56.50;102973.31;5103341;27;45495;-80
2024/01/31 08:32:21;;;;;;;;;8.67;8.67;;;;;10.07;56.60;102926.00;5097944;27;45418;-79
2024/01/31 08:34:46;;;;;;;;;11.33;8.67;;;;;9.76;56.96;102887.00;5098955;27;45306;-81
2024/01/31 08:37:11;;;;;;;;;9.00;9.00;;;;;9.95;56.51;102886.81;5102760;27;45592;-80
2024/01/31 08:39:37;;;;;;;;;7.00;7.00;;;;;10.27;56.83;102927.53;5094570;27;45649;-81
2024/01/31 08:42:03;;;;;;;;;12.00;8.00;;;;;10.79;56.27;102995.44;5089875;27;45421;-81
2024/01/31 08:44:29;;;;;;;;;9.33;9.33;;;;;10.56;55.81;102909.00;5081096;28;45525;-81
2024/01/31 08:46:55;;;;;;;;;7.33;7.33;;;;;10.12;55.58;102815.88;5088580;27;45418;-80
2024/01/31 08:49:23;;;;;;;;;4.67;2.33;;;;;11.54;55.65;102986.41;5098364;27;45826;-80
2024/01/31 08:51:48;;;;;;;;;9.00;9.00;;;;;11.51;55.02;102938.66;5087465;27;45515;-80
2024/01/31 08:54:14;;;;;;;;;5.67;5.67;;;;;11.37;54.01;102856.09;5102071;27;45460;-79
2024/01/31 08:56:39;;;;;;;;;14.33;12.00;;;;;11.72;53.70;102878.69;5092030;27;46367;-79
2024/01/31 08:59:05;;;;;;;;;13.33;10.33;;;;;12.28;53.13;102924.78;5087327;27;46342;-79
2024/01/31 09:01:30;;;;;;;;;10.67;10.00;;;;;11.88;52.67;102823.47;5083534;27;45505;-79
2024/01/31 09:03:56;;;;;;;;;9.00;8.00;;;;;12.81;52.01;102938.97;5099073;27;45459;-80
2024/01/31 09:06:22;;;;;;;;;8.67;7.67;;;;;13.05;51.65;102968.50;5098645;27;45548;-81
2024/01/31 09:08:48;;;;;;;;;11.00;11.00;;;;;12.92;51.22;102899.06;5106722;27;45437;-79
2024/01/31 09:11:14;;;;;;;;;8.33;7.67;;;;;13.85;51.24;103011.88;5103059;27;45383;-80
2024/01/31 09:13:40;;;;;;;;;12.33;11.00;;;;;14.15;50.16;103014.16;5101923;27;45334;-81
2024/01/31 09:16:06;;;;;;;;;9.33;9.33;;;;;13.32;49.52;102800.13;5102739;27;45288;-80
2024/01/31 09:18:31;;;;;;;;;13.33;9.67;;;;;15.02;48.67;103016.56;5100595;27;45555;-80
2024/01/31 09:20:57;;;;;;;;;13.00;10.00;;;;;15.27;48.14;103018.19;5099181;27;45540;-79
2024/01/31 09:23:22;;;;;;;;;8.67;8.67;;;;;15.21;47.49;102963.22;5101245;27;45295;-80
2024/01/31 09:25:49;;;;;;;;;10.00;9.67;;;;;15.76;47.43;102998.25;5083412;27;45325;-80
2024/01/31 09:28:14;;;;;;;;;9.00;9.00;;;;;16.49;46.21;102994.91;5099220;27;45503;-80
2024/01/31 09:30:40;;;;;;;;;10.00;7.67;;;;;17.19;44.60;103015.81;5099370;27;45483;-81
2024/01/31 09:33:06;;;;;;;;;9.33;9.00;;;;;16.84;44.65;102993.81;5098952;27;45470;-80
2024/01/31 09:35:31;;;;;;;;;9.00;8.00;;;;;16.63;45.58;102997.31;5103440;27;45308;-80
2024/01/31 09:37:57;;;;;;;;;9.67;9.67;;;;;15.75;45.77;102882.06;5105164;27;45441;-80
2024/01/31 09:40:23;;;;;;;;;9.67;8.33;;;;;16.08;46.25;102947.34;5098443;27;45554;-79
2024/01/31 09:42:51;;;;;;;;;5.33;4.33;;;;;15.96;46.82;102921.50;5099221;27;45466;-82
2024/01/31 09:45:17;;;;;;;;;9.33;9.33;;;;;15.70;46.92;102937.91;5099502;27;45458;-81
2024/01/31 09:47:45;;;;;;;;;11.33;10.33;;;;;15.61;47.59;102949.34;5096330;27;46218;-83
2024/01/31 09:50:11;;;;;;;;;11.67;10.67;;;;;15.22;47.90;102894.44;5098869;27;45449;-80
2024/01/31 09:52:39;;;;;;;;;12.00;11.67;;;;;15.29;48.19;102954.59;5090774;27;45629;-80
2024/01/31 09:55:09;;;;;;;;;11.00;9.33;;;;;13.88;49.04;102768.34;5099267;27;45365;-82
2024/01/31 09:57:34;;;;;;;;;15.67;11.00;;;;;14.49;49.87;102911.69;5108428;27;46297;-81
2024/01/31 10:00:05;;;;;;;;;9.00;9.00;;;;;14.21;50.45;102912.88;5101174;27;45572;-83
2024/01/31 10:02:31;;;;;;;;;11.67;11.67;;;;;14.21;51.51;102915.56;5100691;27;45319;-82
2024/01/31 10:04:57;;;;;;;;;12.00;11.00;;;;;13.87;51.96;102879.78;5089011;27;45415;-81
2024/01/31 10:07:29;;;;;;;;;13.67;11.00;;;;;14.02;52.30;102923.28;5088745;27;47231;-82
2024/01/31 10:09:55;;;;;;;;;12.00;10.00;;;;;14.25;52.70;102951.84;5102799;27;45618;-81
2024/01/31 10:12:21;;;;;;;;;11.00;11.00;;;;;13.91;52.79;102915.16;5080621;27;45498;-82
2024/01/31 10:14:48;;;;;;;;;18.00;11.33;;;;;14.00;53.46;102949.25;5098636;27;45473;-79
2024/01/31 10:17:17;;;;;;;;;12.33;12.33;;;;;13.90;53.79;102945.56;5098328;27;45396;-81
2024/01/31 10:19:43;;;;;;;;;11.00;11.00;;;;;13.58;54.01;102916.66;5080011;27;45474;-81
2024/01/31 10:22:08;;;;;;;;;10.67;10.67;;;;;13.76;53.77;102959.06;5097898;27;45442;-81
2024/01/31 10:24:34;;;;;;;;;12.00;11.33;;;;;12.91;54.53;102827.09;5098798;27;45476;-81
2024/01/31 10:27:02;;;;;;;;;14.33;14.33;;;;;13.46;54.83;102924.72;5098465;27;45393;-83
2024/01/31 10:29:28;;;;;;;;;11.00;10.67;;;;;13.55;54.62;102940.06;5080456;27;45515;-81
2024/01/31 10:31:54;;;;;;;;;14.67;11.00;;;;;12.82;55.51;102844.63;5091224;27;45457;-82
2024/01/31 10:34:22;;;;;;;;;10.33;10.00;;;;;13.27;55.80;102949.19;5082721;27;45368;-80
2024/01/31 10:36:47;;;;;;;;;11.33;10.33;;;;;13.13;57.00;102954.63;5099359;27;46264;-85
2024/01/31 10:39:16;;;;;;;;;13.00;13.00;;;;;12.81;56.90;102885.59;5097875;27;45444;-82
2024/01/31 10:41:42;;;;;;;;;15.00;12.67;;;;;13.24;57.16;102941.41;5098006;27;45465;-80
2024/01/31 10:44:13;;;;;;;;;10.67;10.67;;;;;13.23;56.89;102931.69;5097067;27;45305;-83
2024/01/31 10:46:39;;;;;;;;;10.33;10.33;;;;;12.77;57.11;102873.44;5080755;27;46580;-81
2024/01/31 10:49:05;;;;;;;;;19.33;17.67;;;;;12.64;57.22;102851.25;5098561;27;45291;-80
2024/01/31 10:51:34;;;;;;;;;14.33;13.33;;;;;13.17;57.60;102938.25;5099327;27;45459;-81
2024/01/31 10:54:02;;;;;;;;;4.67;2.33;;;;;12.49;57.63;102808.63;5101628;27;46376;-81
2024/01/31 10:56:29;;;;;;;;;12.33;12.00;;;;;12.98;57.86;102887.94;5098593;27;46220;-81
2024/01/31 10:58:58;;;;;;;;;16.33;12.00;;;;;12.65;58.33;102863.63;5097837;27;45436;-81
2024/01/31 11:01:31;;;;;;;;;10.33;9.67;;;;;12.93;58.40;102895.44;5078462;27;45484;-80
2024/01/31 11:03:57;;;;;;;;;10.67;8.67;;;;;12.45;58.88;102825.81;5097784;27;45277;-81
2024/01/31 11:06:30;;;;;;;;;18.00;14.00;;;;;11.97;59.15;102746.47;5098478;27;45439;-82
2024/01/31 11:08:58;;;;;;;;;11.67;10.33;;;;;12.89;59.64;102901.94;5097440;27;45310;-81
2024/01/31 11:11:24;;;;;;;;;14.67;12.67;;;;;12.99;59.41;102910.16;5098017;27;45334;-80
2024/01/31 11:13:56;;;;;;;;;12.00;9.67;;;;;12.52;59.69;102836.06;5097177;27;45430;-81
2024/01/31 11:16:25;;;;;;;;;15.67;12.00;;;;;13.03;59.58;102927.72;5098555;27;45363;-81
2024/01/31 11:18:53;;;;;;;;;15.67;15.00;;;;;12.15;59.79;102790.56;5079083;27;45342;-82